sensor_id;sensor_type;location;lat;lon;timestamp;temperature;humidity
67273;DHT22;54190;49.770;9.250;2023-04-01T00:01:35;9.50;99.90
67273;DHT22;54190;49.770;9.250;2023-04-01T00:04:00;9.60;99.90
67273;DHT22;54190;49.770;9.250;2023-04-01T00:06:27;9.60;99.90
67273;DHT22;54190;49.770;9.250;2023-04-01T00:08:53;9.60;99.90
67273;DHT22;54190;49.770;9.250;2023-04-01T00:11:19;9.60;99.90
67273;DHT22;54190;49.770;9.250;2023-04-01T00:13:45;9.60;99.90
67273;DHT22;54190;49.770;9.250;2023-04-01T00:16:11;9.50;99.90
67273;DHT22;54190;49.770;9.250;2023-04-01T00:18:37;9.60;99.90
67273;DHT22;54190;49.770;9.250;2023-04-01T00:21:03;9.60;99.90
67273;DHT22;54190;49.770;9.250;2023-04-01T00:23:28;9.50;99.90
67273;DHT22;54190;49.770;9.250;2023-04-01T00:25:54;9.50;99.90
67273;DHT22;54190;49.770;9.250;2023-04-01T00:28:20;9.50;99.90
67273;DHT22;54190;49.770;9.250;2023-04-01T00:30:48;9.50;99.90
67273;DHT22;54190;49.770;9.250;2023-04-01T00:33:15;9.50;99.90
67273;DHT22;54190;49.770;9.250;2023-04-01T00:35:40;9.40;99.90
67273;DHT22;54190;49.770;9.250;2023-04-01T00:38:07;9.50;99.90
67273;DHT22;54190;49.770;9.250;2023-04-01T00:40:36;9.50;99.90
67273;DHT22;54190;49.770;9.250;2023-04-01T00:43:03;9.50;99.90
67273;DHT22;54190;49.770;9.250;2023-04-01T00:45:40;9.50;99.90
67273;DHT22;54190;49.770;9.250;2023-04-01T00:48:28;9.50;99.90
67273;DHT22;54190;49.770;9.250;2023-04-01T00:51:17;9.60;99.90
67273;DHT22;54190;49.770;9.250;2023-04-01T00:53:47;9.60;99.90
67273;DHT22;54190;49.770;9.250;2023-04-01T00:56:22;9.50;99.90
67273;DHT22;54190;49.770;9.250;2023-04-01T00:59:15;9.50;99.90
67273;DHT22;54190;49.770;9.250;2023-04-01T01:01:42;9.50;99.90
67273;DHT22;54190;49.770;9.250;2023-04-01T01:04:21;9.50;99.90
67273;DHT22;54190;49.770;9.250;2023-04-01T01:12:03;9.50;99.90
67273;DHT22;54190;49.770;9.250;2023-04-01T01:34:55;9.50;99.90
67273;DHT22;54190;49.770;9.250;2023-04-01T01:37:25;9.40;99.90
67273;DHT22;54190;49.770;9.250;2023-04-01T01:39:59;9.50;99.90
67273;DHT22;54190;49.770;9.250;2023-04-01T01:42:27;9.40;99.90
67273;DHT22;54190;49.770;9.250;2023-04-01T01:44:55;9.40;99.90
67273;DHT22;54190;49.770;9.250;2023-04-01T01:47:23;9.40;99.90
67273;DHT22;54190;49.770;9.250;2023-04-01T01:49:51;9.40;99.90
67273;DHT22;54190;49.770;9.250;2023-04-01T01:52:18;9.40;99.90
67273;DHT22;54190;49.770;9.250;2023-04-01T01:54:54;9.40;99.90
67273;DHT22;54190;49.770;9.250;2023-04-01T01:57:34;9.30;99.90
67273;DHT22;54190;49.770;9.250;2023-04-01T02:00:09;9.40;99.90
67273;DHT22;54190;49.770;9.250;2023-04-01T02:02:40;9.30;99.90
67273;DHT22;54190;49.770;9.250;2023-04-01T02:05:14;9.40;99.90
67273;DHT22;54190;49.770;9.250;2023-04-01T02:07:43;9.40;99.90
67273;DHT22;54190;49.770;9.250;2023-04-01T02:10:11;9.40;99.90
67273;DHT22;54190;49.770;9.250;2023-04-01T02:12:38;9.30;99.90
67273;DHT22;54190;49.770;9.250;2023-04-01T02:15:10;9.30;99.90
67273;DHT22;54190;49.770;9.250;2023-04-01T02:17:42;9.40;99.90
67273;DHT22;54190;49.770;9.250;2023-04-01T02:20:13;9.40;99.90
67273;DHT22;54190;49.770;9.250;2023-04-01T02:22:44;9.40;99.90
67273;DHT22;54190;49.770;9.250;2023-04-01T02:25:20;9.40;99.90
67273;DHT22;54190;49.770;9.250;2023-04-01T02:27:47;9.30;99.90
67273;DHT22;54190;49.770;9.250;2023-04-01T02:30:17;9.30;99.90
67273;DHT22;54190;49.770;9.250;2023-04-01T02:32:43;9.30;99.90
67273;DHT22;54190;49.770;9.250;2023-04-01T02:35:11;9.40;99.90
67273;DHT22;54190;49.770;9.250;2023-04-01T02:37:38;9.40;99.90
67273;DHT22;54190;49.770;9.250;2023-04-01T02:40:05;9.40;99.90
67273;DHT22;54190;49.770;9.250;2023-04-01T02:42:33;9.40;99.90
67273;DHT22;54190;49.770;9.250;2023-04-01T02:44:59;9.40;99.90
67273;DHT22;54190;49.770;9.250;2023-04-01T02:47:25;9.40;99.90
67273;DHT22;54190;49.770;9.250;2023-04-01T02:49:51;9.40;99.90
67273;DHT22;54190;49.770;9.250;2023-04-01T02:52:26;9.40;99.90
67273;DHT22;54190;49.770;9.250;2023-04-01T02:54:54;9.40;99.90
67273;DHT22;54190;49.770;9.250;2023-04-01T02:57:20;9.30;99.90
67273;DHT22;54190;49.770;9.250;2023-04-01T02:59:46;9.30;99.90
67273;DHT22;54190;49.770;9.250;2023-04-01T03:02:12;9.30;99.90
67273;DHT22;54190;49.770;9.250;2023-04-01T03:04:38;9.40;99.90
67273;DHT22;54190;49.770;9.250;2023-04-01T03:07:04;9.40;99.90
67273;DHT22;54190;49.770;9.250;2023-04-01T03:09:30;9.40;99.90
67273;DHT22;54190;49.770;9.250;2023-04-01T03:11:56;9.40;99.90
67273;DHT22;54190;49.770;9.250;2023-04-01T03:14:21;9.40;99.90
67273;DHT22;54190;49.770;9.250;2023-04-01T03:16:47;9.40;99.90
67273;DHT22;54190;49.770;9.250;2023-04-01T03:19:13;9.40;99.90
67273;DHT22;54190;49.770;9.250;2023-04-01T03:21:38;9.40;99.90
67273;DHT22;54190;49.770;9.250;2023-04-01T03:24:04;9.40;99.90
67273;DHT22;54190;49.770;9.250;2023-04-01T03:26:31;9.40;99.90
67273;DHT22;54190;49.770;9.250;2023-04-01T03:28:57;9.40;99.90
67273;DHT22;54190;49.770;9.250;2023-04-01T03:31:23;9.40;99.90
67273;DHT22;54190;49.770;9.250;2023-04-01T03:33:53;9.40;99.90
67273;DHT22;54190;49.770;9.250;2023-04-01T03:36:19;9.40;99.90
67273;DHT22;54190;49.770;9.250;2023-04-01T03:38:46;9.40;99.90
67273;DHT22;54190;49.770;9.250;2023-04-01T03:41:17;9.40;99.90
67273;DHT22;54190;49.770;9.250;2023-04-01T03:43:44;9.40;99.90
67273;DHT22;54190;49.770;9.250;2023-04-01T03:46:10;9.40;99.90
67273;DHT22;54190;49.770;9.250;2023-04-01T03:48:36;9.40;99.90
67273;DHT22;54190;49.770;9.250;2023-04-01T03:51:07;9.40;99.90
67273;DHT22;54190;49.770;9.250;2023-04-01T03:53:33;9.40;99.90
67273;DHT22;54190;49.770;9.250;2023-04-01T03:56:07;9.40;99.90
67273;DHT22;54190;49.770;9.250;2023-04-01T03:58:34;9.40;99.90
67273;DHT22;54190;49.770;9.250;2023-04-01T04:01:01;9.40;99.90
67273;DHT22;54190;49.770;9.250;2023-04-01T04:03:27;9.40;99.90
67273;DHT22;54190;49.770;9.250;2023-04-01T04:05:53;9.40;99.90
67273;DHT22;54190;49.770;9.250;2023-04-01T04:08:19;9.40;99.90
67273;DHT22;54190;49.770;9.250;2023-04-01T04:10:47;9.40;99.90
67273;DHT22;54190;49.770;9.250;2023-04-01T04:13:13;9.40;99.90
67273;DHT22;54190;49.770;9.250;2023-04-01T04:15:46;9.40;99.90
67273;DHT22;54190;49.770;9.250;2023-04-01T04:18:12;9.50;99.90
67273;DHT22;54190;49.770;9.250;2023-04-01T04:20:46;9.40;99.90
67273;DHT22;54190;49.770;9.250;2023-04-01T04:23:14;9.40;99.90
67273;DHT22;54190;49.770;9.250;2023-04-01T04:25:40;9.40;99.90
67273;DHT22;54190;49.770;9.250;2023-04-01T04:28:06;9.50;99.90
67273;DHT22;54190;49.770;9.250;2023-04-01T04:30:31;9.50;99.90
67273;DHT22;54190;49.770;9.250;2023-04-01T04:32:57;9.50;99.90
67273;DHT22;54190;49.770;9.250;2023-04-01T04:35:22;9.50;99.90
67273;DHT22;54190;49.770;9.250;2023-04-01T04:37:48;9.50;99.90
67273;DHT22;54190;49.770;9.250;2023-04-01T04:40:15;9.50;99.90
67273;DHT22;54190;49.770;9.250;2023-04-01T04:42:41;9.50;99.90
67273;DHT22;54190;49.770;9.250;2023-04-01T04:45:10;9.50;99.90
67273;DHT22;54190;49.770;9.250;2023-04-01T04:47:41;9.50;99.90
67273;DHT22;54190;49.770;9.250;2023-04-01T04:50:07;9.50;99.90
67273;DHT22;54190;49.770;9.250;2023-04-01T04:52:35;9.50;99.90
67273;DHT22;54190;49.770;9.250;2023-04-01T04:55:01;9.50;99.90
67273;DHT22;54190;49.770;9.250;2023-04-01T04:57:27;9.40;99.90
67273;DHT22;54190;49.770;9.250;2023-04-01T04:59:54;9.40;99.90
67273;DHT22;54190;49.770;9.250;2023-04-01T05:02:40;9.40;99.90
67273;DHT22;54190;49.770;9.250;2023-04-01T05:05:06;9.40;99.90
67273;DHT22;54190;49.770;9.250;2023-04-01T05:07:33;9.30;99.90
67273;DHT22;54190;49.770;9.250;2023-04-01T05:09:59;9.30;99.90
67273;DHT22;54190;49.770;9.250;2023-04-01T05:12:26;9.20;99.90
67273;DHT22;54190;49.770;9.250;2023-04-01T05:14:57;9.20;99.90
67273;DHT22;54190;49.770;9.250;2023-04-01T05:17:23;9.10;99.90
67273;DHT22;54190;49.770;9.250;2023-04-01T05:19:49;9.10;99.90
67273;DHT22;54190;49.770;9.250;2023-04-01T05:22:14;9.10;99.90
67273;DHT22;54190;49.770;9.250;2023-04-01T05:24:40;9.00;99.90
67273;DHT22;54190;49.770;9.250;2023-04-01T05:27:06;9.00;99.90
67273;DHT22;54190;49.770;9.250;2023-04-01T05:29:33;8.90;99.90
67273;DHT22;54190;49.770;9.250;2023-04-01T05:32:04;8.90;99.90
67273;DHT22;54190;49.770;9.250;2023-04-01T05:34:30;8.90;99.90
67273;DHT22;54190;49.770;9.250;2023-04-01T05:36:55;8.90;99.90
67273;DHT22;54190;49.770;9.250;2023-04-01T05:39:21;8.80;99.90
67273;DHT22;54190;49.770;9.250;2023-04-01T05:41:47;8.80;99.90
67273;DHT22;54190;49.770;9.250;2023-04-01T05:44:12;8.80;99.90
67273;DHT22;54190;49.770;9.250;2023-04-01T05:46:38;8.80;99.90
67273;DHT22;54190;49.770;9.250;2023-04-01T05:49:36;8.70;99.90
67273;DHT22;54190;49.770;9.250;2023-04-01T05:52:03;8.70;99.90
67273;DHT22;54190;49.770;9.250;2023-04-01T05:54:30;8.80;99.90
67273;DHT22;54190;49.770;9.250;2023-04-01T05:56:55;8.80;99.90
67273;DHT22;54190;49.770;9.250;2023-04-01T05:59:21;8.80;99.90
67273;DHT22;54190;49.770;9.250;2023-04-01T06:01:47;8.80;99.90
67273;DHT22;54190;49.770;9.250;2023-04-01T06:04:15;8.80;99.90
67273;DHT22;54190;49.770;9.250;2023-04-01T06:06:41;8.80;99.90
67273;DHT22;54190;49.770;9.250;2023-04-01T06:09:15;8.70;99.90
67273;DHT22;54190;49.770;9.250;2023-04-01T06:14:28;8.70;99.90
67273;DHT22;54190;49.770;9.250;2023-04-01T06:17:26;8.70;99.90
67273;DHT22;54190;49.770;9.250;2023-04-01T06:22:43;8.70;99.90
67273;DHT22;54190;49.770;9.250;2023-04-01T06:25:25;8.70;99.90
67273;DHT22;54190;49.770;9.250;2023-04-01T06:36:57;8.70;99.90
67273;DHT22;54190;49.770;9.250;2023-04-01T06:42:29;8.80;99.90
67273;DHT22;54190;49.770;9.250;2023-04-01T06:54:29;8.90;99.90
67273;DHT22;54190;49.770;9.250;2023-04-01T06:57:29;8.90;99.90
67273;DHT22;54190;49.770;9.250;2023-04-01T07:00:00;9.00;99.90
67273;DHT22;54190;49.770;9.250;2023-04-01T07:02:37;9.00;99.90
67273;DHT22;54190;49.770;9.250;2023-04-01T07:05:04;9.10;99.90
67273;DHT22;54190;49.770;9.250;2023-04-01T07:07:43;9.10;99.90
67273;DHT22;54190;49.770;9.250;2023-04-01T07:11:08;9.10;99.90
67273;DHT22;54190;49.770;9.250;2023-04-01T07:13:54;9.10;99.90
67273;DHT22;54190;49.770;9.250;2023-04-01T07:16:26;9.20;99.90
67273;DHT22;54190;49.770;9.250;2023-04-01T07:19:03;9.10;99.90
67273;DHT22;54190;49.770;9.250;2023-04-01T07:21:52;9.10;99.90
67273;DHT22;54190;49.770;9.250;2023-04-01T07:24:36;9.10;99.90
67273;DHT22;54190;49.770;9.250;2023-04-01T07:27:10;9.10;99.90
67273;DHT22;54190;49.770;9.250;2023-04-01T07:29:38;9.10;99.90
67273;DHT22;54190;49.770;9.250;2023-04-01T07:32:12;9.10;99.90
67273;DHT22;54190;49.770;9.250;2023-04-01T07:35:03;9.10;99.90
67273;DHT22;54190;49.770;9.250;2023-04-01T07:37:57;9.10;99.90
67273;DHT22;54190;49.770;9.250;2023-04-01T07:43:19;9.20;99.90
67273;DHT22;54190;49.770;9.250;2023-04-01T07:46:26;9.20;99.90
67273;DHT22;54190;49.770;9.250;2023-04-01T07:52:06;9.10;99.90
67273;DHT22;54190;49.770;9.250;2023-04-01T07:54:51;9.10;99.90
67273;DHT22;54190;49.770;9.250;2023-04-01T08:03:24;9.10;99.90
67273;DHT22;54190;49.770;9.250;2023-04-01T08:11:48;9.10;99.90
67273;DHT22;54190;49.770;9.250;2023-04-01T08:18:06;9.10;99.90
67273;DHT22;54190;49.770;9.250;2023-04-01T08:20:41;9.10;99.90
67273;DHT22;54190;49.770;9.250;2023-04-01T08:28:46;9.20;99.90
67273;DHT22;54190;49.770;9.250;2023-04-01T08:31:38;9.20;99.90
67273;DHT22;54190;49.770;9.250;2023-04-01T08:34:20;9.20;99.90
67273;DHT22;54190;49.770;9.250;2023-04-01T08:36:54;9.20;99.90
67273;DHT22;54190;49.770;9.250;2023-04-01T08:47:45;9.20;99.90
67273;DHT22;54190;49.770;9.250;2023-04-01T08:56:18;9.30;99.90
67273;DHT22;54190;49.770;9.250;2023-04-01T09:10:24;9.30;99.90
67273;DHT22;54190;49.770;9.250;2023-04-01T09:15:42;9.30;99.90
67273;DHT22;54190;49.770;9.250;2023-04-01T09:18:15;9.40;99.90
67273;DHT22;54190;49.770;9.250;2023-04-01T09:21:04;9.40;99.90
67273;DHT22;54190;49.770;9.250;2023-04-01T09:48:34;9.50;99.90
67273;DHT22;54190;49.770;9.250;2023-04-01T09:51:29;9.60;99.90
67273;DHT22;54190;49.770;9.250;2023-04-01T09:54:31;9.70;99.90
67273;DHT22;54190;49.770;9.250;2023-04-01T10:14:37;9.80;99.90
67273;DHT22;54190;49.770;9.250;2023-04-01T10:31:13;9.90;99.90
67273;DHT22;54190;49.770;9.250;2023-04-01T10:40:12;9.90;99.90
67273;DHT22;54190;49.770;9.250;2023-04-01T11:25:25;10.10;99.90
67273;DHT22;54190;49.770;9.250;2023-04-01T11:28:42;10.10;99.90
67273;DHT22;54190;49.770;9.250;2023-04-01T11:46:36;10.20;99.90
67273;DHT22;54190;49.770;9.250;2023-04-01T11:58:27;10.30;99.90
67273;DHT22;54190;49.770;9.250;2023-04-01T12:07:01;10.30;99.90
67273;DHT22;54190;49.770;9.250;2023-04-01T12:17:55;10.20;99.90
67273;DHT22;54190;49.770;9.250;2023-04-01T12:23:34;10.30;99.90
67273;DHT22;54190;49.770;9.250;2023-04-01T12:29:30;10.30;99.90
67273;DHT22;54190;49.770;9.250;2023-04-01T12:32:35;10.30;99.90
67273;DHT22;54190;49.770;9.250;2023-04-01T12:38:08;10.30;99.90
67273;DHT22;54190;49.770;9.250;2023-04-01T12:41:05;10.30;99.90
67273;DHT22;54190;49.770;9.250;2023-04-01T12:44:13;10.30;99.90
67273;DHT22;54190;49.770;9.250;2023-04-01T12:47:13;10.30;99.90
67273;DHT22;54190;49.770;9.250;2023-04-01T12:49:55;10.30;99.90
67273;DHT22;54190;49.770;9.250;2023-04-01T12:55:39;10.20;99.90
67273;DHT22;54190;49.770;9.250;2023-04-01T12:58:40;10.20;99.90
67273;DHT22;54190;49.770;9.250;2023-04-01T13:15:25;10.20;99.90
67273;DHT22;54190;49.770;9.250;2023-04-01T13:20:58;10.30;99.90
67273;DHT22;54190;49.770;9.250;2023-04-01T13:29:14;10.30;99.90
67273;DHT22;54190;49.770;9.250;2023-04-01T13:35:04;10.30;99.90
67273;DHT22;54190;49.770;9.250;2023-04-01T13:37:57;10.40;99.90
67273;DHT22;54190;49.770;9.250;2023-04-01T13:41:09;10.40;99.90
67273;DHT22;54190;49.770;9.250;2023-04-01T13:43:39;10.40;99.90
67273;DHT22;54190;49.770;9.250;2023-04-01T13:47:07;10.40;99.90
67273;DHT22;54190;49.770;9.250;2023-04-01T13:52:47;10.40;99.90
67273;DHT22;54190;49.770;9.250;2023-04-01T13:55:30;10.30;99.90
67273;DHT22;54190;49.770;9.250;2023-04-01T13:58:28;10.30;99.90
67273;DHT22;54190;49.770;9.250;2023-04-01T14:09:50;10.20;99.90
67273;DHT22;54190;49.770;9.250;2023-04-01T14:12:29;10.20;99.90
67273;DHT22;54190;49.770;9.250;2023-04-01T14:32:34;10.10;99.90
67273;DHT22;54190;49.770;9.250;2023-04-01T14:43:09;10.10;99.90
67273;DHT22;54190;49.770;9.250;2023-04-01T14:49:02;10.20;99.90
67273;DHT22;54190;49.770;9.250;2023-04-01T14:51:35;10.30;99.90
67273;DHT22;54190;49.770;9.250;2023-04-01T14:56:43;10.30;99.90
67273;DHT22;54190;49.770;9.250;2023-04-01T14:59:29;10.30;99.90
67273;DHT22;54190;49.770;9.250;2023-04-01T15:04:50;10.20;99.90
67273;DHT22;54190;49.770;9.250;2023-04-01T15:24:06;10.20;99.90
67273;DHT22;54190;49.770;9.250;2023-04-01T15:26:53;10.30;99.90
67273;DHT22;54190;49.770;9.250;2023-04-01T15:40:49;10.30;99.90
67273;DHT22;54190;49.770;9.250;2023-04-01T16:03:15;10.20;99.90
67273;DHT22;54190;49.770;9.250;2023-04-01T16:27:17;10.10;99.90
67273;DHT22;54190;49.770;9.250;2023-04-01T16:32:53;10.10;99.90
67273;DHT22;54190;49.770;9.250;2023-04-01T16:38:41;10.10;99.90
67273;DHT22;54190;49.770;9.250;2023-04-01T16:41:19;10.10;99.90
67273;DHT22;54190;49.770;9.250;2023-04-01T16:43:56;10.10;99.90
67273;DHT22;54190;49.770;9.250;2023-04-01T16:46:43;10.10;99.90
67273;DHT22;54190;49.770;9.250;2023-04-01T16:51:44;10.00;99.90
67273;DHT22;54190;49.770;9.250;2023-04-01T16:56:52;10.00;99.90
67273;DHT22;54190;49.770;9.250;2023-04-01T16:59:45;10.00;99.90
67273;DHT22;54190;49.770;9.250;2023-04-01T17:02:14;10.00;99.90
67273;DHT22;54190;49.770;9.250;2023-04-01T17:05:11;10.00;99.90
67273;DHT22;54190;49.770;9.250;2023-04-01T17:15:53;9.90;99.90
67273;DHT22;54190;49.770;9.250;2023-04-01T17:19:06;9.90;99.90
67273;DHT22;54190;49.770;9.250;2023-04-01T17:21:34;9.90;99.90
67273;DHT22;54190;49.770;9.250;2023-04-01T17:24:19;9.90;99.90
67273;DHT22;54190;49.770;9.250;2023-04-01T17:27:13;9.90;99.90
67273;DHT22;54190;49.770;9.250;2023-04-01T17:30:06;9.90;99.90
67273;DHT22;54190;49.770;9.250;2023-04-01T17:38:15;9.80;99.90
67273;DHT22;54190;49.770;9.250;2023-04-01T17:46:05;9.70;99.90
67273;DHT22;54190;49.770;9.250;2023-04-01T17:51:40;9.70;99.90
67273;DHT22;54190;49.770;9.250;2023-04-01T17:54:26;9.70;99.90
67273;DHT22;54190;49.770;9.250;2023-04-01T17:57:35;9.70;99.90
67273;DHT22;54190;49.770;9.250;2023-04-01T18:05:56;9.70;99.90
67273;DHT22;54190;49.770;9.250;2023-04-01T18:08:32;9.70;99.90
67273;DHT22;54190;49.770;9.250;2023-04-01T18:14:18;9.60;99.90
67273;DHT22;54190;49.770;9.250;2023-04-01T18:22:38;9.60;99.90
67273;DHT22;54190;49.770;9.250;2023-04-01T18:25:33;9.60;99.90
67273;DHT22;54190;49.770;9.250;2023-04-01T18:31:04;9.60;99.90
67273;DHT22;54190;49.770;9.250;2023-04-01T18:34:00;9.60;99.90
67273;DHT22;54190;49.770;9.250;2023-04-01T18:36:47;9.60;99.90
67273;DHT22;54190;49.770;9.250;2023-04-01T18:39:30;9.60;99.90
67273;DHT22;54190;49.770;9.250;2023-04-01T18:45:14;9.50;99.90
67273;DHT22;54190;49.770;9.250;2023-04-01T18:48:08;9.50;99.90
67273;DHT22;54190;49.770;9.250;2023-04-01T18:50:53;9.50;99.90
67273;DHT22;54190;49.770;9.250;2023-04-01T18:53:38;9.50;99.90
67273;DHT22;54190;49.770;9.250;2023-04-01T18:56:33;9.50;99.90
67273;DHT22;54190;49.770;9.250;2023-04-01T19:01:57;9.50;99.90
67273;DHT22;54190;49.770;9.250;2023-04-01T19:06:59;9.50;99.90
67273;DHT22;54190;49.770;9.250;2023-04-01T19:09:44;9.40;99.90
67273;DHT22;54190;49.770;9.250;2023-04-01T19:21:32;9.40;99.90
67273;DHT22;54190;49.770;9.250;2023-04-01T19:24:41;9.40;99.90
67273;DHT22;54190;49.770;9.250;2023-04-01T19:33:37;9.40;99.90
67273;DHT22;54190;49.770;9.250;2023-04-01T19:41:46;9.40;99.90
67273;DHT22;54190;49.770;9.250;2023-04-01T19:44:23;9.40;99.90
67273;DHT22;54190;49.770;9.250;2023-04-01T19:54:56;9.40;99.90
67273;DHT22;54190;49.770;9.250;2023-04-01T20:16:51;9.20;99.90
67273;DHT22;54190;49.770;9.250;2023-04-01T20:19:40;9.20;99.90
67273;DHT22;54190;49.770;9.250;2023-04-01T20:25:21;9.20;99.90
67273;DHT22;54190;49.770;9.250;2023-04-01T20:28:12;9.20;99.90
67273;DHT22;54190;49.770;9.250;2023-04-01T20:33:37;9.20;99.90
67273;DHT22;54190;49.770;9.250;2023-04-01T20:45:26;9.10;99.90
67273;DHT22;54190;49.770;9.250;2023-04-01T20:50:47;9.10;99.90
67273;DHT22;54190;49.770;9.250;2023-04-01T21:01:40;9.10;99.90
67273;DHT22;54190;49.770;9.250;2023-04-01T21:04:27;9.10;99.90
67273;DHT22;54190;49.770;9.250;2023-04-01T21:07:11;9.00;99.90
67273;DHT22;54190;49.770;9.250;2023-04-01T21:10:05;9.00;99.90
67273;DHT22;54190;49.770;9.250;2023-04-01T21:12:54;9.00;99.90
67273;DHT22;54190;49.770;9.250;2023-04-01T21:15:32;9.00;99.90
67273;DHT22;54190;49.770;9.250;2023-04-01T21:18:13;9.00;99.90
67273;DHT22;54190;49.770;9.250;2023-04-01T21:23:44;9.00;99.90
67273;DHT22;54190;49.770;9.250;2023-04-01T21:29:18;8.90;99.90
67273;DHT22;54190;49.770;9.250;2023-04-01T21:40:16;8.90;99.90
67273;DHT22;54190;49.770;9.250;2023-04-01T21:49:06;8.90;99.90
67273;DHT22;54190;49.770;9.250;2023-04-01T22:11:07;8.80;99.90
67273;DHT22;54190;49.770;9.250;2023-04-01T22:14:00;8.80;99.90
67273;DHT22;54190;49.770;9.250;2023-04-01T22:16:40;8.80;99.90
67273;DHT22;54190;49.770;9.250;2023-04-01T22:19:19;8.80;99.90
67273;DHT22;54190;49.770;9.250;2023-04-01T22:22:04;8.80;99.90
67273;DHT22;54190;49.770;9.250;2023-04-01T22:27:41;8.80;99.90
67273;DHT22;54190;49.770;9.250;2023-04-01T22:30:29;8.80;99.90
67273;DHT22;54190;49.770;9.250;2023-04-01T22:33:05;8.80;99.90
67273;DHT22;54190;49.770;9.250;2023-04-01T22:36:03;8.80;99.90
67273;DHT22;54190;49.770;9.250;2023-04-01T22:43:45;8.80;99.90
67273;DHT22;54190;49.770;9.250;2023-04-01T22:51:43;8.80;99.90
67273;DHT22;54190;49.770;9.250;2023-04-01T22:54:19;8.80;99.90
67273;DHT22;54190;49.770;9.250;2023-04-01T22:56:57;8.80;99.90
67273;DHT22;54190;49.770;9.250;2023-04-01T22:59:39;8.80;99.90
67273;DHT22;54190;49.770;9.250;2023-04-01T23:02:31;8.80;99.90
67273;DHT22;54190;49.770;9.250;2023-04-01T23:05:00;8.90;99.90
67273;DHT22;54190;49.770;9.250;2023-04-01T23:07:51;8.80;99.90
67273;DHT22;54190;49.770;9.250;2023-04-01T23:13:19;8.80;99.90
67273;DHT22;54190;49.770;9.250;2023-04-01T23:15:47;8.80;99.90
67273;DHT22;54190;49.770;9.250;2023-04-01T23:18:34;8.80;99.90
67273;DHT22;54190;49.770;9.250;2023-04-01T23:23:55;8.90;99.90
67273;DHT22;54190;49.770;9.250;2023-04-01T23:26:48;8.90;99.90
67273;DHT22;54190;49.770;9.250;2023-04-01T23:29:17;8.90;99.90
67273;DHT22;54190;49.770;9.250;2023-04-01T23:31:45;8.90;99.90
67273;DHT22;54190;49.770;9.250;2023-04-01T23:36:42;8.80;99.90
67273;DHT22;54190;49.770;9.250;2023-04-01T23:39:28;8.80;99.90
67273;DHT22;54190;49.770;9.250;2023-04-01T23:42:24;8.80;99.90
67273;DHT22;54190;49.770;9.250;2023-04-01T23:44:55;8.80;99.90
67273;DHT22;54190;49.770;9.250;2023-04-01T23:47:24;8.80;99.90
67273;DHT22;54190;49.770;9.250;2023-04-01T23:49:58;8.80;99.90
67273;DHT22;54190;49.770;9.250;2023-04-01T23:52:40;8.70;99.90
67273;DHT22;54190;49.770;9.250;2023-04-01T23:57:35;8.80;99.90
